Time;durP1;ratioP1;P1;durP2;ratioP2;P2;SDS_P1;SDS_P2;PMS_P1;PMS_P2;Temp;Humidity;BMP_temperature;BMP_pressure;BME280_temperature;BME280_humidity;BME280_pressure;Samples;Min_cycle;Max_cycle;Signal;HPM_P1;HPM_P2
2023/07/02 00:01:35;;;;;;;0.35;0.35;;;;;;;;;;5016966;28;20519;-58
2023/07/02 00:04:26;;;;;;;0.30;0.30;;;;;;;;;;5018432;28;20561;-58
2023/07/02 00:06:58;;;;;;;0.38;0.38;;;;;;;;;;5018266;28;20470;-58
2023/07/02 00:09:25;;;;;;;0.40;0.40;;;;;;;;;;5017594;28;20507;-58
2023/07/02 00:11:55;;;;;;;0.40;0.40;;;;;;;;;;5016445;28;20434;-58
2023/07/02 00:14:22;;;;;;;1.52;0.50;;;;;;;;;;5016049;28;20471;-58
2023/07/02 00:16:50;;;;;;;0.40;0.40;;;;;;;;;;5017501;28;20996;-59
2023/07/02 00:19:17;;;;;;;0.40;0.40;;;;;;;;;;4999886;28;20435;-58
2023/07/02 00:21:53;;;;;;;0.50;0.40;;;;;;;;;;5013297;28;20533;-58
2023/07/02 00:24:20;;;;;;;1.80;0.53;;;;;;;;;;5017249;28;21506;-58
2023/07/02 00:26:48;;;;;;;1.67;0.80;;;;;;;;;;5017217;28;20446;-58
2023/07/02 00:29:15;;;;;;;0.70;0.70;;;;;;;;;;5017810;28;20435;-58
2023/07/02 00:31:45;;;;;;;0.47;0.47;;;;;;;;;;5016631;28;20770;-58
2023/07/02 00:34:12;;;;;;;0.30;0.30;;;;;;;;;;5016844;28;20493;-58
2023/07/02 00:36:41;;;;;;;0.40;0.40;;;;;;;;;;5019258;28;20944;-58
2023/07/02 00:39:09;;;;;;;1.30;0.53;;;;;;;;;;5002351;28;20437;-58
2023/07/02 00:41:40;;;;;;;0.30;0.30;;;;;;;;;;5016675;28;20435;-58
2023/07/02 00:44:08;;;;;;;2.40;0.25;;;;;;;;;;5018251;28;20533;-58
2023/07/02 00:47:00;;;;;;;0.50;0.50;;;;;;;;;;5016435;28;20537;-58
2023/07/02 00:49:28;;;;;;;0.50;0.50;;;;;;;;;;5016600;28;20434;-59
2023/07/02 00:52:00;;;;;;;0.35;0.35;;;;;;;;;;5015983;28;20427;-58
2023/07/02 00:54:31;;;;;;;0.30;0.30;;;;;;;;;;5005584;28;20430;-58
2023/07/02 00:57:02;;;;;;;0.20;0.20;;;;;;;;;;5012475;28;20828;-58
2023/07/02 00:59:30;;;;;;;0.45;0.45;;;;;;;;;;5013366;28;20440;-58
2023/07/02 01:02:00;;;;;;;0.90;0.70;;;;;;;;;;5009317;28;20441;-59
2023/07/02 01:04:27;;;;;;;0.32;0.32;;;;;;;;;;5014881;28;20438;-59
2023/07/02 01:06:58;;;;;;;0.40;0.40;;;;;;;;;;5012907;28;20427;-58
2023/07/02 01:09:28;;;;;;;0.30;0.30;;;;;;;;;;5014188;28;20435;-58
2023/07/02 01:11:56;;;;;;;0.27;0.27;;;;;;;;;;5014848;28;21003;-58
2023/07/02 01:14:28;;;;;;;0.80;0.40;;;;;;;;;;5013992;28;20445;-58
2023/07/02 01:17:03;;;;;;;0.75;0.75;;;;;;;;;;5015967;28;20435;-58
2023/07/02 01:19:58;;;;;;;0.50;0.20;;;;;;;;;;5015909;28;20439;-58
2023/07/02 01:22:27;;;;;;;0.40;0.40;;;;;;;;;;5015079;28;20443;-58
2023/07/02 01:24:55;;;;;;;0.30;0.30;;;;;;;;;;5013899;28;20975;-56
2023/07/02 01:27:22;;;;;;;0.40;0.40;;;;;;;;;;5013067;28;20444;-57
2023/07/02 01:29:53;;;;;;;0.50;0.40;;;;;;;;;;5015447;28;20481;-57
2023/07/02 01:32:20;;;;;;;0.65;0.65;;;;;;;;;;5011637;28;20561;-57
2023/07/02 01:34:48;;;;;;;0.35;0.35;;;;;;;;;;5013247;28;23111;-57
2023/07/02 01:37:25;;;;;;;0.80;0.28;;;;;;;;;;5012920;28;20446;-56
2023/07/02 01:39:52;;;;;;;0.60;0.40;;;;;;;;;;5014438;28;20439;-56
2023/07/02 01:42:20;;;;;;;2.95;0.40;;;;;;;;;;5013071;28;20434;-57
2023/07/02 01:44:48;;;;;;;1.40;0.68;;;;;;;;;;4999652;28;20500;-57
2023/07/02 01:47:16;;;;;;;0.45;0.45;;;;;;;;;;5013069;28;20828;-56
2023/07/02 01:49:44;;;;;;;0.52;0.52;;;;;;;;;;5015376;28;20434;-57
2023/07/02 01:52:11;;;;;;;0.57;0.57;;;;;;;;;;5015568;28;20466;-57
2023/07/02 01:54:38;;;;;;;0.35;0.35;;;;;;;;;;5014948;28;20431;-57
2023/07/02 01:57:05;;;;;;;0.32;0.32;;;;;;;;;;5015227;28;20434;-57
2023/07/02 01:59:32;;;;;;;0.65;0.65;;;;;;;;;;5014154;28;20437;-56
2023/07/02 02:02:00;;;;;;;0.70;0.40;;;;;;;;;;5014739;28;20523;-57
2023/07/02 02:04:27;;;;;;;0.53;0.53;;;;;;;;;;5016379;28;20439;-57
2023/07/02 02:06:57;;;;;;;0.60;0.60;;;;;;;;;;5017027;28;20518;-57
2023/07/02 02:09:25;;;;;;;0.30;0.30;;;;;;;;;;5015999;28;20472;-56
2023/07/02 02:11:52;;;;;;;0.47;0.47;;;;;;;;;;5020480;28;20432;-57
2023/07/02 02:14:21;;;;;;;0.47;0.47;;;;;;;;;;5015004;28;20444;-56
2023/07/02 02:16:51;;;;;;;0.50;0.50;;;;;;;;;;5015893;28;20504;-56
2023/07/02 02:19:19;;;;;;;1.60;0.50;;;;;;;;;;5012976;28;20480;-57
2023/07/02 02:21:49;;;;;;;0.40;0.40;;;;;;;;;;4999120;28;20455;-57
2023/07/02 02:24:16;;;;;;;0.75;0.65;;;;;;;;;;5016417;28;20446;-57
2023/07/02 02:26:44;;;;;;;0.30;0.30;;;;;;;;;;5014220;28;20514;-57
2023/07/02 02:29:11;;;;;;;0.95;0.63;;;;;;;;;;5013733;28;20476;-57
2023/07/02 02:31:38;;;;;;;0.67;0.67;;;;;;;;;;5021551;28;20434;-57
2023/07/02 02:34:05;;;;;;;0.70;0.70;;;;;;;;;;5019518;28;20446;-57
2023/07/02 02:36:32;;;;;;;1.00;0.70;;;;;;;;;;5019714;28;20516;-57
2023/07/02 02:39:00;;;;;;;1.20;1.10;;;;;;;;;;5015591;28;20490;-57
2023/07/02 02:41:27;;;;;;;2.17;0.33;;;;;;;;;;5016421;28;20514;-57
2023/07/02 02:43:54;;;;;;;0.37;0.37;;;;;;;;;;5018944;28;20549;-57
2023/07/02 02:46:22;;;;;;;0.40;0.40;;;;;;;;;;5018134;28;20520;-57
2023/07/02 02:48:49;;;;;;;0.90;0.80;;;;;;;;;;5019269;28;21149;-57
2023/07/02 02:51:16;;;;;;;1.95;1.10;;;;;;;;;;5021485;28;20426;-57
2023/07/02 02:53:44;;;;;;;1.13;0.60;;;;;;;;;;5003469;28;22247;-57
2023/07/02 02:56:11;;;;;;;0.77;0.77;;;;;;;;;;5002426;28;20467;-57
2023/07/02 02:58:41;;;;;;;1.10;0.93;;;;;;;;;;5020620;28;20448;-57
2023/07/02 03:01:14;;;;;;;1.40;1.30;;;;;;;;;;5017541;28;20438;-57
2023/07/02 03:03:44;;;;;;;1.20;1.10;;;;;;;;;;5016951;28;20463;-57
2023/07/02 03:06:15;;;;;;;1.08;0.60;;;;;;;;;;5017041;28;21509;-57
2023/07/02 03:08:43;;;;;;;0.50;0.50;;;;;;;;;;5018709;28;20438;-57
2023/07/02 03:11:10;;;;;;;1.50;1.10;;;;;;;;;;5023721;28;20522;-57
2023/07/02 03:13:37;;;;;;;0.73;0.67;;;;;;;;;;5014881;28;20528;-57
2023/07/02 03:16:05;;;;;;;2.08;0.63;;;;;;;;;;5018156;28;20557;-57
2023/07/02 03:18:32;;;;;;;0.50;0.50;;;;;;;;;;5016772;28;20912;-57
2023/07/02 03:21:00;;;;;;;0.60;0.60;;;;;;;;;;5002438;28;20446;-57
2023/07/02 03:23:27;;;;;;;0.97;0.97;;;;;;;;;;5018071;28;20531;-57
2023/07/02 03:25:54;;;;;;;1.20;1.10;;;;;;;;;;5016565;28;20429;-57
2023/07/02 03:28:21;;;;;;;0.40;0.40;;;;;;;;;;5016684;28;20439;-57
2023/07/02 03:30:48;;;;;;;3.33;1.10;;;;;;;;;;5000575;28;20473;-57
2023/07/02 03:33:16;;;;;;;1.40;0.88;;;;;;;;;;5018554;28;20450;-57
2023/07/02 03:35:43;;;;;;;1.15;0.77;;;;;;;;;;5015781;28;20946;-57
2023/07/02 03:38:11;;;;;;;1.00;1.00;;;;;;;;;;5016922;28;20520;-57
2023/07/02 03:40:38;;;;;;;0.80;0.73;;;;;;;;;;5017295;28;20985;-57
2023/07/02 03:43:06;;;;;;;1.10;0.75;;;;;;;;;;5017867;28;20462;-57
2023/07/02 03:45:33;;;;;;;0.40;0.40;;;;;;;;;;5014669;28;20431;-57
2023/07/02 03:48:00;;;;;;;0.80;0.80;;;;;;;;;;5015726;28;20440;-57
2023/07/02 03:50:28;;;;;;;1.00;0.65;;;;;;;;;;5017265;28;20518;-57
2023/07/02 03:52:55;;;;;;;0.80;0.80;;;;;;;;;;5018191;28;20981;-57
2023/07/02 03:55:25;;;;;;;6.78;0.93;;;;;;;;;;5013128;28;20471;-57
2023/07/02 03:57:52;;;;;;;1.45;1.23;;;;;;;;;;5018597;28;20466;-57
2023/07/02 04:00:19;;;;;;;1.95;1.20;;;;;;;;;;5015865;28;20509;-57
2023/07/02 04:02:47;;;;;;;0.57;0.57;;;;;;;;;;5000057;28;20445;-57
2023/07/02 04:05:14;;;;;;;1.00;0.90;;;;;;;;;;5018534;28;20435;-57
2023/07/02 04:07:41;;;;;;;0.60;0.60;;;;;;;;;;5015398;28;20510;-57
2023/07/02 04:10:09;;;;;;;1.88;0.85;;;;;;;;;;5018641;28;20438;-57
2023/07/02 04:12:36;;;;;;;0.60;0.60;;;;;;;;;;5016943;28;22853;-57
2023/07/02 04:15:04;;;;;;;1.60;0.90;;;;;;;;;;5002186;28;20527;-57
2023/07/02 04:17:31;;;;;;;0.80;0.80;;;;;;;;;;5017809;28;20445;-58
2023/07/02 04:20:00;;;;;;;1.30;1.20;;;;;;;;;;5018612;28;20901;-57
2023/07/02 04:22:27;;;;;;;1.30;1.20;;;;;;;;;;5018144;28;20970;-57
2023/07/02 04:24:57;;;;;;;1.63;1.02;;;;;;;;;;5018595;28;20852;-57
2023/07/02 04:27:35;;;;;;;1.20;0.98;;;;;;;;;;5018017;28;20430;-57
2023/07/02 04:30:17;;;;;;;1.00;1.00;;;;;;;;;;5016755;28;20538;-57
2023/07/02 04:32:44;;;;;;;0.82;0.82;;;;;;;;;;5016886;28;20443;-57
2023/07/02 04:35:12;;;;;;;0.47;0.47;;;;;;;;;;5016659;28;20437;-57
2023/07/02 04:37:41;;;;;;;1.20;1.10;;;;;;;;;;5015870;28;20505;-57
2023/07/02 04:40:12;;;;;;;0.77;0.77;;;;;;;;;;5017166;28;20525;-57
2023/07/02 04:42:39;;;;;;;0.87;0.87;;;;;;;;;;4996798;28;20448;-57
2023/07/02 04:45:09;;;;;;;2.17;1.00;;;;;;;;;;5019096;28;20429;-57
2023/07/02 04:47:36;;;;;;;0.50;0.50;;;;;;;;;;5014930;28;20816;-57
2023/07/02 04:50:05;;;;;;;1.10;0.77;;;;;;;;;;5017995;28;20419;-57
2023/07/02 04:52:32;;;;;;;3.28;1.25;;;;;;;;;;5016384;28;20557;-57
2023/07/02 04:55:00;;;;;;;1.45;1.35;;;;;;;;;;5018534;28;20517;-57
2023/07/02 04:57:28;;;;;;;0.75;0.70;;;;;;;;;;5013470;28;20973;-57
2023/07/02 04:59:55;;;;;;;1.00;0.93;;;;;;;;;;5012919;28;20992;-57
2023/07/02 05:02:25;;;;;;;1.15;1.08;;;;;;;;;;5010788;28;20434;-58
2023/07/02 05:04:52;;;;;;;1.30;1.20;;;;;;;;;;5013724;28;20526;-57
2023/07/02 05:07:20;;;;;;;0.73;0.73;;;;;;;;;;5011890;28;20849;-58
2023/07/02 05:09:48;;;;;;;1.08;0.82;;;;;;;;;;5013513;28;20919;-58
2023/07/02 05:12:19;;;;;;;1.77;1.55;;;;;;;;;;5013707;28;20434;-58
2023/07/02 05:14:46;;;;;;;1.17;0.93;;;;;;;;;;5008106;28;20440;-57
2023/07/02 05:17:14;;;;;;;1.83;1.33;;;;;;;;;;5012864;28;20517;-58
2023/07/02 05:19:41;;;;;;;1.50;1.35;;;;;;;;;;5012683;28;20438;-58
2023/07/02 05:22:09;;;;;;;1.10;1.08;;;;;;;;;;5015389;28;20494;-57
2023/07/02 05:24:40;;;;;;;1.27;1.17;;;;;;;;;;5014734;28;20510;-58
2023/07/02 05:27:11;;;;;;;1.95;1.08;;;;;;;;;;5015016;28;20431;-57
2023/07/02 05:29:38;;;;;;;1.42;1.25;;;;;;;;;;5013187;28;20437;-57
2023/07/02 05:32:05;;;;;;;1.77;1.38;;;;;;;;;;5014775;28;20518;-57
2023/07/02 05:34:33;;;;;;;3.10;1.45;;;;;;;;;;5014374;28;20680;-58
2023/07/02 05:37:00;;;;;;;1.58;1.42;;;;;;;;;;5012324;28;20524;-57
2023/07/02 05:39:30;;;;;;;3.03;1.35;;;;;;;;;;5012410;28;20442;-57
2023/07/02 05:41:58;;;;;;;3.25;1.60;;;;;;;;;;5020195;28;20462;-57
2023/07/02 05:44:28;;;;;;;1.27;1.05;;;;;;;;;;5005920;28;21468;-57
2023/07/02 05:46:55;;;;;;;2.38;1.20;;;;;;;;;;5012957;28;20439;-58
2023/07/02 05:49:23;;;;;;;3.20;1.70;;;;;;;;;;5000358;28;20443;-58
2023/07/02 05:51:50;;;;;;;3.28;1.40;;;;;;;;;;5011595;28;21093;-58
2023/07/02 05:54:17;;;;;;;1.63;1.52;;;;;;;;;;5010153;28;20944;-58
2023/07/02 05:56:45;;;;;;;1.75;1.33;;;;;;;;;;5010620;28;20481;-58
2023/07/02 05:59:14;;;;;;;2.40;2.10;;;;;;;;;;5014922;28;20601;-58
2023/07/02 06:01:41;;;;;;;2.08;1.58;;;;;;;;;;5012890;28;20478;-59
2023/07/02 06:04:12;;;;;;;2.20;1.50;;;;;;;;;;5012133;28;21177;-59
2023/07/02 06:06:42;;;;;;;2.15;1.40;;;;;;;;;;5013247;28;20452;-61
2023/07/02 06:09:09;;;;;;;2.27;1.40;;;;;;;;;;5011796;28;20460;-59
2023/07/02 06:11:38;;;;;;;2.10;1.20;;;;;;;;;;5014721;28;20499;-61
2023/07/02 06:14:06;;;;;;;1.43;1.33;;;;;;;;;;5013461;28;20856;-59
2023/07/02 06:16:36;;;;;;;3.20;1.77;;;;;;;;;;4998349;28;20440;-60
2023/07/02 06:19:04;;;;;;;4.43;2.27;;;;;;;;;;5009562;28;20963;-60
2023/07/02 06:21:31;;;;;;;4.50;1.55;;;;;;;;;;5010972;28;20885;-60
2023/07/02 06:23:59;;;;;;;4.03;2.35;;;;;;;;;;5013242;28;20439;-60
2023/07/02 06:26:27;;;;;;;2.55;2.35;;;;;;;;;;5010342;28;20435;-60
2023/07/02 06:28:54;;;;;;;4.78;2.20;;;;;;;;;;5014268;28;20470;-60
2023/07/02 06:31:23;;;;;;;2.85;1.48;;;;;;;;;;5009692;28;20430;-60
2023/07/02 06:33:50;;;;;;;2.35;1.95;;;;;;;;;;5013304;28;20439;-60
2023/07/02 06:36:17;;;;;;;5.60;2.50;;;;;;;;;;5012884;28;20434;-60
2023/07/02 06:38:45;;;;;;;1.90;1.80;;;;;;;;;;5012579;28;20928;-60
2023/07/02 06:41:12;;;;;;;2.33;2.13;;;;;;;;;;5010983;28;20515;-60
2023/07/02 06:43:39;;;;;;;4.13;2.00;;;;;;;;;;5013738;28;20444;-60
2023/07/02 06:46:06;;;;;;;2.13;1.90;;;;;;;;;;5010945;28;20505;-60
2023/07/02 06:48:34;;;;;;;2.50;2.05;;;;;;;;;;5010320;28;20850;-61
2023/07/02 06:51:02;;;;;;;2.65;1.58;;;;;;;;;;4995589;28;21886;-60
2023/07/02 06:53:29;;;;;;;3.72;1.98;;;;;;;;;;5013701;28;20461;-60
2023/07/02 06:55:57;;;;;;;1.87;1.50;;;;;;;;;;5012360;28;20562;-60
2023/07/02 06:58:25;;;;;;;2.22;1.70;;;;;;;;;;5008927;28;20526;-60
2023/07/02 07:00:52;;;;;;;3.65;2.28;;;;;;;;;;5011012;28;20966;-60
2023/07/02 07:03:19;;;;;;;2.33;1.73;;;;;;;;;;5013987;28;20426;-60
2023/07/02 07:05:47;;;;;;;3.97;1.88;;;;;;;;;;5014591;28;20437;-61
2023/07/02 07:08:14;;;;;;;4.25;2.13;;;;;;;;;;5015741;28;20439;-60
2023/07/02 07:10:41;;;;;;;3.67;2.60;;;;;;;;;;4996615;28;20421;-61
2023/07/02 07:13:08;;;;;;;3.22;2.08;;;;;;;;;;4998273;28;20436;-60
2023/07/02 07:15:38;;;;;;;4.15;2.20;;;;;;;;;;5012591;28;20538;-60
2023/07/02 07:18:06;;;;;;;2.80;2.00;;;;;;;;;;5017455;28;20534;-61
2023/07/02 07:20:33;;;;;;;3.08;2.22;;;;;;;;;;5010288;28;20434;-61
2023/07/02 07:23:00;;;;;;;4.15;2.92;;;;;;;;;;5004734;28;20439;-60
2023/07/02 07:25:27;;;;;;;2.47;2.28;;;;;;;;;;5010302;28;20437;-60
2023/07/02 07:27:55;;;;;;;2.80;2.07;;;;;;;;;;5010396;28;20542;-60
2023/07/02 07:30:22;;;;;;;3.55;2.30;;;;;;;;;;4994008;28;20489;-61
2023/07/02 07:32:53;;;;;;;4.60;2.13;;;;;;;;;;5012182;28;20488;-61
2023/07/02 07:35:21;;;;;;;4.53;2.30;;;;;;;;;;5002696;28;20439;-61
2023/07/02 07:37:49;;;;;;;3.22;2.33;;;;;;;;;;5010228;28;20552;-61
2023/07/02 07:40:17;;;;;;;3.30;2.33;;;;;;;;;;5000285;28;20523;-61
2023/07/02 07:42:44;;;;;;;3.17;2.85;;;;;;;;;;5016105;28;20481;-61
2023/07/02 07:45:12;;;;;;;6.60;2.67;;;;;;;;;;5013899;28;20439;-61
2023/07/02 07:47:41;;;;;;;3.85;2.17;;;;;;;;;;5010825;28;20816;-61
2023/07/02 07:50:10;;;;;;;5.47;2.20;;;;;;;;;;4998568;28;22995;-61
2023/07/02 07:52:41;;;;;;;4.93;2.67;;;;;;;;;;5015328;28;20433;-61
2023/07/02 07:55:09;;;;;;;6.88;3.05;;;;;;;;;;5018196;28;20470;-61
2023/07/02 07:57:38;;;;;;;3.33;2.50;;;;;;;;;;5012862;28;20980;-61
2023/07/02 08:00:09;;;;;;;3.78;2.10;;;;;;;;;;5015613;28;20501;-60
2023/07/02 08:02:37;;;;;;;8.05;2.38;;;;;;;;;;5010822;28;20436;-61
2023/07/02 08:05:05;;;;;;;5.80;2.88;;;;;;;;;;5010969;28;20449;-61
2023/07/02 08:07:34;;;;;;;4.60;2.22;;;;;;;;;;5014563;28;20421;-61
2023/07/02 08:10:02;;;;;;;1.90;1.60;;;;;;;;;;5001953;28;20438;-61
2023/07/02 08:12:30;;;;;;;2.40;1.70;;;;;;;;;;5001422;28;20435;-61
2023/07/02 08:14:57;;;;;;;2.83;2.03;;;;;;;;;;5013515;28;20436;-61
2023/07/02 08:17:24;;;;;;;3.95;2.47;;;;;;;;;;5013732;28;20445;-61
2023/07/02 08:19:53;;;;;;;3.17;2.05;;;;;;;;;;5012684;28;20510;-61
2023/07/02 08:22:20;;;;;;;2.22;2.03;;;;;;;;;;5014829;28;20463;-60
2023/07/02 08:24:49;;;;;;;2.50;2.00;;;;;;;;;;5010211;28;20431;-62
2023/07/02 08:27:19;;;;;;;2.28;2.00;;;;;;;;;;5015187;28;20439;-61
2023/07/02 08:29:50;;;;;;;2.63;2.30;;;;;;;;;;5015447;28;20460;-61
2023/07/02 08:32:20;;;;;;;3.30;1.83;;;;;;;;;;5016117;28;20789;-62
2023/07/02 08:34:47;;;;;;;1.65;1.52;;;;;;;;;;5015266;28;20443;-62
2023/07/02 08:37:18;;;;;;;2.00;1.75;;;;;;;;;;5017684;28;20587;-62
2023/07/02 08:39:45;;;;;;;4.85;2.17;;;;;;;;;;4997794;28;20446;-61
2023/07/02 08:42:12;;;;;;;2.57;2.27;;;;;;;;;;5016418;28;21189;-62
2023/07/02 08:44:39;;;;;;;2.88;1.88;;;;;;;;;;5012279;28;20430;-61
2023/07/02 08:47:06;;;;;;;4.30;2.03;;;;;;;;;;5015235;28;20442;-62
2023/07/02 08:49:33;;;;;;;2.75;2.05;;;;;;;;;;5011964;28;20441;-62
2023/07/02 08:52:03;;;;;;;3.33;2.28;;;;;;;;;;5016468;28;20435;-62
2023/07/02 08:54:30;;;;;;;4.07;1.95;;;;;;;;;;5014433;28;20434;-62
2023/07/02 08:56:57;;;;;;;3.97;2.20;;;;;;;;;;5012731;28;20431;-62
2023/07/02 08:59:25;;;;;;;3.80;2.22;;;;;;;;;;4995569;28;20483;-61
2023/07/02 09:01:53;;;;;;;1.83;1.50;;;;;;;;;;5011038;28;20473;-63
2023/07/02 09:04:24;;;;;;;2.55;2.35;;;;;;;;;;5013204;28;20833;-62
2023/07/02 09:07:03;;;;;;;4.47;1.65;;;;;;;;;;5015700;28;20430;-62
2023/07/02 09:09:32;;;;;;;2.13;1.92;;;;;;;;;;5017328;28;20520;-62
2023/07/02 09:12:02;;;;;;;1.77;1.50;;;;;;;;;;5013655;28;20425;-62
2023/07/02 09:14:30;;;;;;;1.55;1.40;;;;;;;;;;5014242;28;20443;-61
2023/07/02 09:17:06;;;;;;;3.25;2.03;;;;;;;;;;4997163;28;20438;-62
2023/07/02 09:19:35;;;;;;;2.10;1.60;;;;;;;;;;5014101;28;20435;-63
2023/07/02 09:22:02;;;;;;;2.70;2.05;;;;;;;;;;5014868;28;20530;-62
2023/07/02 09:24:31;;;;;;;2.20;1.50;;;;;;;;;;5016912;28;21099;-61
2023/07/02 09:27:02;;;;;;;4.25;2.25;;;;;;;;;;5010752;28;20525;-61
2023/07/02 09:29:33;;;;;;;3.10;1.88;;;;;;;;;;4998167;28;21086;-61
2023/07/02 09:32:02;;;;;;;3.65;2.30;;;;;;;;;;5016349;28;20457;-62
2023/07/02 09:34:40;;;;;;;4.03;2.53;;;;;;;;;;5002739;28;20439;-62
2023/07/02 09:37:10;;;;;;;3.20;2.13;;;;;;;;;;5010669;28;20542;-62
2023/07/02 09:39:39;;;;;;;2.97;1.90;;;;;;;;;;5016251;28;20507;-62
2023/07/02 09:42:07;;;;;;;3.10;2.47;;;;;;;;;;5012856;28;20439;-61
2023/07/02 09:44:35;;;;;;;2.50;1.77;;;;;;;;;;5007285;28;20563;-62
2023/07/02 09:47:10;;;;;;;9.18;2.13;;;;;;;;;;5004730;28;20434;-62
2023/07/02 09:49:39;;;;;;;3.85;1.70;;;;;;;;;;5011369;28;21088;-62
2023/07/02 09:52:08;;;;;;;1.90;1.80;;;;;;;;;;5007917;28;20435;-63
2023/07/02 09:54:37;;;;;;;2.23;1.97;;;;;;;;;;5011467;28;20858;-62
2023/07/02 09:57:07;;;;;;;2.80;2.40;;;;;;;;;;5009348;28;20555;-62
2023/07/02 09:59:34;;;;;;;2.60;1.83;;;;;;;;;;5010609;28;20501;-60
2023/07/02 10:02:04;;;;;;;2.20;1.90;;;;;;;;;;5009113;28;20448;-63
2023/07/02 10:04:42;;;;;;;2.30;1.50;;;;;;;;;;5009070;28;20431;-60
2023/07/02 10:07:12;;;;;;;3.10;2.07;;;;;;;;;;5005399;28;20438;-61
2023/07/02 10:09:44;;;;;;;4.05;2.08;;;;;;;;;;5011378;28;20840;-62
2023/07/02 10:12:23;;;;;;;3.25;1.77;;;;;;;;;;4998571;28;20466;-62
2023/07/02 10:14:51;;;;;;;3.50;1.60;;;;;;;;;;5012150;28;20465;-62
2023/07/02 10:17:30;;;;;;;2.53;1.77;;;;;;;;;;5009819;28;20920;-62
2023/07/02 10:20:00;;;;;;;2.00;1.85;;;;;;;;;;5012549;28;20449;-63
2023/07/02 10:22:28;;;;;;;2.35;1.95;;;;;;;;;;5010856;28;20442;-62
2023/07/02 10:25:05;;;;;;;3.17;2.70;;;;;;;;;;5013316;28;20504;-62
2023/07/02 10:27:34;;;;;;;3.75;2.28;;;;;;;;;;5011351;28;20478;-63
2023/07/02 10:30:05;;;;;;;4.10;2.13;;;;;;;;;;5009946;28;21006;-60
2023/07/02 10:32:33;;;;;;;4.50;2.40;;;;;;;;;;5008475;28;20554;-62
2023/07/02 10:35:17;;;;;;;2.53;2.20;;;;;;;;;;5013294;28;20435;-62
2023/07/02 10:37:45;;;;;;;3.38;2.10;;;;;;;;;;5010560;28;20438;-61
2023/07/02 10:40:12;;;;;;;3.25;2.08;;;;;;;;;;5009552;28;20536;-62
2023/07/02 10:42:46;;;;;;;3.00;2.00;;;;;;;;;;5010802;28;20431;-62
2023/07/02 10:45:17;;;;;;;3.50;2.10;;;;;;;;;;5007242;28;20939;-62
2023/07/02 10:47:44;;;;;;;6.40;2.50;;;;;;;;;;5010942;28;21587;-62
2023/07/02 10:50:23;;;;;;;6.45;2.47;;;;;;;;;;5004508;28;20445;-62
2023/07/02 10:52:50;;;;;;;4.13;2.40;;;;;;;;;;5012741;28;20916;-63
2023/07/02 10:55:18;;;;;;;3.58;2.47;;;;;;;;;;5016991;28;22583;-62
2023/07/02 10:57:46;;;;;;;4.93;2.60;;;;;;;;;;5014443;28;20435;-61
2023/07/02 11:00:15;;;;;;;4.40;2.55;;;;;;;;;;5014870;28;20434;-62
2023/07/02 11:02:43;;;;;;;2.45;2.10;;;;;;;;;;5012933;28;20470;-62
2023/07/02 11:05:14;;;;;;;2.92;2.53;;;;;;;;;;5015266;28;20572;-62
2023/07/02 11:07:43;;;;;;;4.88;3.25;;;;;;;;;;5013948;28;20521;-62
2023/07/02 11:10:17;;;;;;;2.55;2.35;;;;;;;;;;5013193;28;22523;-62
2023/07/02 11:12:45;;;;;;;4.07;2.50;;;;;;;;;;5012377;28;21117;-62
2023/07/02 11:15:14;;;;;;;3.17;2.28;;;;;;;;;;5014063;28;20465;-60
2023/07/02 11:17:41;;;;;;;5.20;2.03;;;;;;;;;;5013578;28;20428;-62
2023/07/02 11:20:10;;;;;;;2.80;2.45;;;;;;;;;;5011612;28;21833;-61
2023/07/02 11:22:41;;;;;;;2.38;1.92;;;;;;;;;;5012708;28;20485;-61
2023/07/02 11:25:16;;;;;;;5.47;2.75;;;;;;;;;;5014984;28;20789;-60
2023/07/02 11:27:46;;;;;;;3.97;2.65;;;;;;;;;;5012812;28;20477;-61
2023/07/02 11:30:13;;;;;;;4.07;2.70;;;;;;;;;;5014040;28;20458;-61
2023/07/02 11:32:52;;;;;;;7.00;3.20;;;;;;;;;;5012715;28;21004;-60
2023/07/02 11:35:23;;;;;;;4.22;2.55;;;;;;;;;;5014500;28;20799;-62
2023/07/02 11:37:50;;;;;;;5.20;3.10;;;;;;;;;;5015269;28;20431;-61
2023/07/02 11:40:18;;;;;;;3.45;2.30;;;;;;;;;;5014557;28;20462;-62
2023/07/02 11:42:48;;;;;;;2.63;2.13;;;;;;;;;;5013793;28;20439;-62
2023/07/02 11:45:15;;;;;;;4.07;2.45;;;;;;;;;;5016201;28;20478;-62
2023/07/02 11:47:43;;;;;;;4.43;2.40;;;;;;;;;;4997350;28;20419;-62
2023/07/02 11:50:11;;;;;;;5.00;2.67;;;;;;;;;;4992313;28;20832;-61
2023/07/02 11:52:53;;;;;;;3.03;2.50;;;;;;;;;;5010516;28;20433;-62
2023/07/02 11:55:24;;;;;;;6.35;2.58;;;;;;;;;;5014433;28;20439;-61
2023/07/02 11:57:54;;;;;;;6.20;3.35;;;;;;;;;;4999758;28;20458;-61
2023/07/02 12:00:21;;;;;;;4.68;2.50;;;;;;;;;;5018606;28;20438;-61
2023/07/02 12:02:49;;;;;;;3.55;2.60;;;;;;;;;;5011309;28;20446;-63
2023/07/02 12:05:16;;;;;;;3.20;2.58;;;;;;;;;;5020230;28;20495;-61
2023/07/02 12:07:43;;;;;;;6.75;2.97;;;;;;;;;;5013061;28;20433;-61
2023/07/02 12:10:10;;;;;;;4.75;2.75;;;;;;;;;;5010507;28;20964;-62
2023/07/02 12:12:42;;;;;;;6.60;2.63;;;;;;;;;;5013820;28;20462;-62
2023/07/02 12:15:10;;;;;;;4.20;2.90;;;;;;;;;;5014930;28;20524;-62
2023/07/02 12:17:37;;;;;;;3.58;2.75;;;;;;;;;;5011283;28;20438;-62
2023/07/02 12:20:04;;;;;;;3.97;2.80;;;;;;;;;;5015098;28;20519;-62
2023/07/02 12:22:31;;;;;;;4.15;2.78;;;;;;;;;;5014111;28;20438;-61
2023/07/02 12:25:02;;;;;;;3.92;2.78;;;;;;;;;;5015787;28;20437;-61
2023/07/02 12:27:29;;;;;;;4.32;2.47;;;;;;;;;;5009200;28;20517;-61
2023/07/02 12:29:57;;;;;;;5.33;2.83;;;;;;;;;;5014934;28;20458;-62
2023/07/02 12:32:24;;;;;;;6.38;2.83;;;;;;;;;;5010707;28;20455;-61
2023/07/02 12:34:51;;;;;;;5.53;2.72;;;;;;;;;;5012502;28;20430;-62
2023/07/02 12:37:43;;;;;;;2.78;2.42;;;;;;;;;;4987297;28;20473;-62
2023/07/02 12:40:12;;;;;;;6.10;2.90;;;;;;;;;;4997565;28;20441;-61
2023/07/02 12:42:44;;;;;;;4.97;3.00;;;;;;;;;;5005603;28;20462;-62
2023/07/02 12:45:12;;;;;;;3.22;2.30;;;;;;;;;;5013825;28;20520;-60
2023/07/02 12:47:44;;;;;;;3.90;2.90;;;;;;;;;;4999331;28;20445;-60
2023/07/02 12:50:11;;;;;;;5.60;3.72;;;;;;;;;;5012357;28;21497;-60
2023/07/02 12:52:41;;;;;;;5.22;2.67;;;;;;;;;;5010599;28;21035;-60
2023/07/02 12:55:09;;;;;;;3.75;3.03;;;;;;;;;;5014909;28;21013;-58
2023/07/02 12:57:36;;;;;;;4.25;3.00;;;;;;;;;;5012145;28;20555;-59
2023/07/02 13:00:08;;;;;;;3.20;2.60;;;;;;;;;;5013904;28;20453;-59
2023/07/02 13:02:36;;;;;;;4.80;2.25;;;;;;;;;;5015323;28;20431;-59
2023/07/02 13:05:20;;;;;;;4.45;2.45;;;;;;;;;;5012083;28;20882;-59
2023/07/02 13:07:47;;;;;;;6.97;2.90;;;;;;;;;;5007833;28;20434;-59
2023/07/02 13:10:17;;;;;;;3.55;2.33;;;;;;;;;;5005642;28;20441;-59
2023/07/02 13:12:45;;;;;;;3.38;2.53;;;;;;;;;;4992934;28;20441;-59
2023/07/02 13:15:36;;;;;;;5.93;2.55;;;;;;;;;;5011285;28;20948;-59
2023/07/02 13:18:06;;;;;;;3.80;2.53;;;;;;;;;;5011616;28;20438;-60
2023/07/02 13:20:33;;;;;;;4.20;2.23;;;;;;;;;;5007423;28;20513;-60
2023/07/02 13:23:01;;;;;;;3.70;2.22;;;;;;;;;;5011825;28;20491;-59
2023/07/02 13:25:28;;;;;;;3.07;2.40;;;;;;;;;;5011243;28;20441;-59
2023/07/02 13:27:55;;;;;;;3.95;2.47;;;;;;;;;;4992977;28;21514;-60
2023/07/02 13:30:23;;;;;;;4.32;2.33;;;;;;;;;;5013702;28;20469;-59
2023/07/02 13:32:52;;;;;;;6.40;2.67;;;;;;;;;;5012266;28;20435;-59
2023/07/02 13:35:20;;;;;;;3.20;2.10;;;;;;;;;;5011126;28;20436;-59
2023/07/02 13:37:48;;;;;;;3.47;2.50;;;;;;;;;;5008479;28;21613;-58
2023/07/02 13:40:15;;;;;;;3.75;2.63;;;;;;;;;;5012620;28;20431;-59
2023/07/02 13:42:43;;;;;;;5.68;3.15;;;;;;;;;;5011769;28;20591;-59
2023/07/02 13:45:10;;;;;;;3.03;2.22;;;;;;;;;;4994503;28;20471;-60
2023/07/02 13:47:38;;;;;;;2.85;1.83;;;;;;;;;;5010792;28;21470;-60
2023/07/02 13:50:06;;;;;;;4.10;2.53;;;;;;;;;;5016941;28;20425;-58
2023/07/02 13:52:38;;;;;;;3.38;2.05;;;;;;;;;;4999379;28;20434;-60
2023/07/02 13:55:06;;;;;;;3.83;2.20;;;;;;;;;;5010315;28;20446;-60
2023/07/02 13:57:33;;;;;;;4.75;2.65;;;;;;;;;;5010605;28;20438;-60
2023/07/02 14:00:00;;;;;;;2.67;2.17;;;;;;;;;;5011344;28;20462;-60
2023/07/02 14:02:30;;;;;;;5.97;2.70;;;;;;;;;;5012609;28;20458;-60
2023/07/02 14:05:00;;;;;;;3.30;2.30;;;;;;;;;;5010989;28;20435;-60
2023/07/02 14:07:30;;;;;;;5.78;2.55;;;;;;;;;;5010104;28;23006;-60
2023/07/02 14:10:02;;;;;;;3.80;2.40;;;;;;;;;;5013409;28;20463;-60
2023/07/02 14:12:29;;;;;;;2.67;2.38;;;;;;;;;;5013689;28;20432;-60
2023/07/02 14:14:57;;;;;;;3.08;2.33;;;;;;;;;;5007807;28;20520;-60
2023/07/02 14:17:25;;;;;;;7.63;2.55;;;;;;;;;;5011689;28;20567;-61
2023/07/02 14:19:53;;;;;;;2.25;2.00;;;;;;;;;;5013963;28;20838;-60
2023/07/02 14:22:20;;;;;;;4.83;2.30;;;;;;;;;;5012081;28;20437;-60
2023/07/02 14:24:48;;;;;;;2.90;2.13;;;;;;;;;;5015315;28;21870;-61
2023/07/02 14:27:15;;;;;;;4.72;2.60;;;;;;;;;;5015577;28;20431;-61
2023/07/02 14:29:42;;;;;;;3.47;2.33;;;;;;;;;;5025369;28;20853;-60
2023/07/02 14:32:11;;;;;;;5.63;3.08;;;;;;;;;;5019092;28;20434;-61
2023/07/02 14:34:38;;;;;;;2.65;2.30;;;;;;;;;;5005154;28;20906;-60
2023/07/02 14:37:10;;;;;;;3.60;2.90;;;;;;;;;;5014691;28;20442;-61
2023/07/02 14:39:42;;;;;;;4.05;2.38;;;;;;;;;;5019853;28;20442;-61
2023/07/02 14:42:27;;;;;;;3.88;2.10;;;;;;;;;;5018653;28;20438;-61
2023/07/02 14:44:54;;;;;;;3.17;2.75;;;;;;;;;;5016778;28;21080;-61
2023/07/02 14:47:24;;;;;;;2.80;2.42;;;;;;;;;;5017041;28;20430;-60
2023/07/02 14:49:51;;;;;;;4.90;2.40;;;;;;;;;;5022702;28;20430;-60
2023/07/02 14:52:23;;;;;;;2.70;2.28;;;;;;;;;;5012016;28;20431;-60
2023/07/02 14:54:56;;;;;;;9.90;2.60;;;;;;;;;;5001751;28;21305;-60